Aérodrome :
LOGIN :

S'inscrire | Disclaimer

   EN    FR    IT 

 










Légende :    VFR   VFR Marginal   IFR   IFR Intensif   IFR Très Intensif
Visi : 
Plafond : 
>= 8 km
>= 3000ft
5 à 8 km
1000 à 3000 ft
1500m à 5 km
500 à 1000 ft
800 à 1500m
200 à 500 ft
< 800m
< 200 ft
Symboles :   Orages  Brouillard  Fortes neiges  Fortes précipitations  Vent > 20 kt
SIGMETs :   Divers  Orages  Givrage  Turbulence  Onde Orograph.  Cendres Volcan.






- Altitude de l'aérodrome : 157 ft
- Code IATA : SXF


EDDB - Berlin Schönefeld

DERNIER METAR :
  • 270650Z 10003KT 060V120 CAVOK 17/14 Q1017 NOSIG

METARs EXPIRÉS :
  • 270620Z 12004KT 090V150 CAVOK 16/14 Q1017 NOSIG
  • 270550Z 12004KT 090V150 9999 FEW041 16/14 Q1017 NOSIG
  • 270520Z 15006KT CAVOK 16/14 Q1017 NOSIG
  • 270450Z 15006KT CAVOK 16/14 Q1017 NOSIG
  • 270420Z 10005KT CAVOK 16/14 Q1017 NOSIG

TAF TAF EDDB
Valide du 27 à 06h jusqu'au 28 à 06h UTC


270500Z 2706/2806 11005KT CAVOK
PROB40
TEMPO 2706/2715 SHRA BKN012 BKN020CB
BECMG 2722/2801 25005KT
PROB30
TEMPO 2800/2804 4000 -RADZ BKN012
BECMG 2801/2804 31005KT



MET'MAP, la Météo Aéronautique d'un coup d'oeil ! - Copyright ORBIFLY Décembre 2007 - Disclaimer

ORBIFLY MET'MAP TEAM :

Programmation & Développement : Alexandra Zaïnal
Sur une idée originale de : Baudouin d'Aumeries
Assistance à la programmation : Marc-Olivier Méhu
Soutien technique & logistique : Manuel Goepfert

Contact : metmap@orbifly.com




SOURCES & CREDITS :

   NOAA